createdAt,value
2018-05-24T00:00:51.799Z,14.50
2018-05-24T00:03:20.372Z,12.87
2018-05-24T00:05:48.871Z,13.57
2018-05-24T00:08:17.414Z,14.00
2018-05-24T00:10:45.955Z,12.80
2018-05-24T00:13:14.438Z,13.60
2018-05-24T00:15:42.954Z,14.50
2018-05-24T00:18:11.481Z,14.10
2018-05-24T00:20:45.814Z,15.33
2018-05-24T00:23:14.612Z,14.30
2018-05-24T00:25:43.147Z,13.50
2018-05-24T00:28:11.742Z,12.93
2018-05-24T00:30:40.258Z,14.50
2018-05-24T00:33:08.771Z,14.03
2018-05-24T00:35:37.256Z,12.60
2018-05-24T00:38:05.778Z,13.43
2018-05-24T00:40:34.256Z,14.57
2018-05-24T00:43:02.781Z,14.83
2018-05-24T00:45:31.300Z,14.67
2018-05-24T00:47:59.802Z,13.97
2018-05-24T00:53:04.081Z,14.47
2018-05-24T00:55:40.960Z,14.03
2018-05-24T00:58:09.118Z,14.43
2018-05-24T01:00:37.843Z,15.27
2018-05-24T01:03:06.357Z,13.93
2018-05-24T01:05:34.852Z,15.10
2018-05-24T01:08:03.360Z,13.67
2018-05-24T01:10:31.865Z,14.47
2018-05-24T01:13:00.354Z,14.23
2018-05-24T01:15:28.870Z,13.93
2018-05-24T01:17:57.724Z,14.30
2018-05-24T01:20:26.238Z,13.00
2018-05-24T01:22:54.726Z,13.40
2018-05-24T01:25:23.238Z,14.00
2018-05-24T01:27:52.146Z,13.50
2018-05-24T01:30:20.723Z,14.10
2018-05-24T01:32:51.422Z,14.80
2018-05-24T01:35:19.957Z,16.00
2018-05-24T01:37:51.963Z,14.53
2018-05-24T01:40:21.627Z,14.77
2018-05-24T01:42:51.277Z,15.73
2018-05-24T01:45:19.865Z,14.37
2018-05-24T01:47:48.312Z,14.33
2018-05-24T01:50:17.436Z,15.07
2018-05-24T01:52:46.802Z,15.27
2018-05-24T01:55:15.317Z,14.00
2018-05-24T01:57:43.827Z,15.70
2018-05-24T02:00:12.302Z,14.13
2018-05-24T02:02:40.802Z,14.47
2018-05-24T02:05:11.318Z,13.93
2018-05-24T02:07:39.855Z,14.33
2018-05-24T02:10:08.405Z,14.37
2018-05-24T02:12:38.278Z,13.00
2018-05-24T02:15:06.848Z,14.03
2018-05-24T02:17:37.435Z,14.00
2018-05-24T02:20:05.362Z,15.27
2018-05-24T02:22:34.704Z,13.60
2018-05-24T02:25:03.311Z,12.80
2018-05-24T02:27:31.793Z,13.80
2018-05-24T02:33:03.812Z,12.57
2018-05-24T02:35:32.479Z,12.50
2018-05-24T02:38:01.247Z,13.10
2018-05-24T02:43:33.259Z,12.73
2018-05-24T02:46:01.773Z,12.00
2018-05-24T02:48:34.704Z,12.43
2018-05-24T02:51:04.884Z,12.67
2018-05-24T02:53:33.129Z,13.27
2018-05-24T02:56:01.669Z,13.60
2018-05-24T02:58:30.193Z,12.10
2018-05-24T03:00:58.720Z,13.13
2018-05-24T03:03:27.247Z,14.57
2018-05-24T03:05:55.769Z,12.30
2018-05-24T03:08:24.281Z,14.73
2018-05-24T03:10:52.790Z,11.67
2018-05-24T03:13:21.279Z,13.33
2018-05-24T03:15:50.216Z,12.00
2018-05-24T03:18:19.702Z,12.13
2018-05-24T03:20:48.223Z,13.30
2018-05-24T03:23:16.728Z,12.40
2018-05-24T03:25:45.195Z,12.40
2018-05-24T03:28:13.686Z,13.40
2018-05-24T03:30:43.176Z,13.80
2018-05-24T03:33:11.798Z,13.13
2018-05-24T03:35:40.328Z,13.30
2018-05-24T03:38:09.825Z,13.07
2018-05-24T03:40:45.971Z,13.03
2018-05-24T03:43:17.765Z,12.90
2018-05-24T03:45:47.431Z,12.70
2018-05-24T03:48:16.941Z,12.67
2018-05-24T03:50:48.939Z,11.93
2018-05-24T03:53:18.459Z,11.67
2018-05-24T03:55:47.011Z,12.30
2018-05-24T04:01:21.478Z,12.13
2018-05-24T04:03:50.686Z,11.00
2018-05-24T04:06:20.247Z,11.13
2018-05-24T04:08:50.653Z,13.30
2018-05-24T04:11:20.965Z,12.97
2018-05-24T04:13:50.601Z,10.97
2018-05-24T04:16:20.110Z,11.60
2018-05-24T04:18:53.286Z,12.70
2018-05-24T04:21:23.358Z,12.03
2018-05-24T04:23:52.845Z,12.37
2018-05-24T04:26:22.354Z,10.53
2018-05-24T04:28:51.868Z,11.67
2018-05-24T04:31:21.401Z,10.97
2018-05-24T04:33:50.921Z,10.50
2018-05-24T04:36:20.181Z,11.13
2018-05-24T04:44:44.257Z,11.20
2018-05-24T04:47:13.758Z,12.03
2018-05-24T04:49:43.663Z,13.00
2018-05-24T04:52:13.206Z,10.27
2018-05-24T04:54:44.044Z,10.50
2018-05-24T04:57:13.687Z,10.50
2018-05-24T04:59:43.191Z,10.50
2018-05-24T05:02:16.808Z,10.10
2018-05-24T05:04:45.385Z,10.67
2018-05-24T05:07:15.615Z,11.13
2018-05-24T05:09:44.280Z,10.00
2018-05-24T05:12:12.786Z,11.00
2018-05-24T05:14:41.420Z,9.67
2018-05-24T05:17:11.233Z,9.10
2018-05-24T05:19:39.899Z,10.23
2018-05-24T05:22:08.445Z,9.60
2018-05-24T05:24:36.881Z,11.53
2018-05-24T05:27:05.138Z,11.77
2018-05-24T05:29:50.648Z,11.03
2018-05-24T05:36:54.063Z,9.23
2018-05-24T05:39:22.628Z,9.13
2018-05-24T05:41:51.223Z,9.37
2018-05-24T05:44:29.610Z,8.90
2018-05-24T05:47:20.352Z,7.40
2018-05-24T05:49:48.801Z,7.53
2018-05-24T05:52:18.095Z,7.90
2018-05-24T05:54:46.524Z,7.60
2018-05-24T05:57:21.689Z,8.50
2018-05-24T06:02:27.760Z,8.93
2018-05-24T06:05:20.326Z,7.80
2018-05-24T06:07:48.892Z,8.10
2018-05-24T06:10:17.388Z,7.60
2018-05-24T06:12:45.931Z,7.70
2018-05-24T06:15:14.483Z,7.80
2018-05-24T06:17:48.790Z,7.80
2018-05-24T06:20:17.332Z,6.77
2018-05-24T06:22:45.808Z,8.30
2018-05-24T06:25:21.697Z,7.00
2018-05-24T06:27:52.218Z,7.70
2018-05-24T06:30:21.420Z,8.27
2018-05-24T06:32:49.972Z,8.33
2018-05-24T06:35:18.255Z,6.47
2018-05-24T06:37:46.756Z,6.63
2018-05-24T06:40:15.271Z,6.50
2018-05-24T06:42:44.081Z,6.23
2018-05-24T06:45:12.541Z,6.70
2018-05-24T06:47:50.928Z,5.63
2018-05-24T06:53:03.300Z,6.40
2018-05-24T06:58:28.822Z,6.23
2018-05-24T07:00:58.922Z,6.13
2018-05-24T07:03:27.494Z,5.97
2018-05-24T07:05:57.145Z,5.20
2018-05-24T07:08:26.691Z,5.83
2018-05-24T07:13:47.818Z,5.07
2018-05-24T07:16:16.340Z,6.03
2018-05-24T07:21:24.819Z,5.47
2018-05-24T07:23:53.307Z,6.40
2018-05-24T07:29:23.426Z,5.17
2018-05-24T07:31:51.841Z,5.00
2018-05-24T07:37:20.231Z,5.17
2018-05-24T07:39:49.885Z,5.50
2018-05-24T07:45:20.192Z,5.07
2018-05-24T07:47:49.697Z,6.23
2018-05-24T07:50:19.241Z,5.70
2018-05-24T07:52:51.013Z,5.20
2018-05-24T07:55:23.401Z,5.67
2018-05-24T07:57:52.947Z,5.87
2018-05-24T08:00:21.466Z,5.33
2018-05-24T08:02:50.394Z,5.20
2018-05-24T08:05:22.326Z,5.90
2018-05-24T08:07:50.923Z,5.97
2018-05-24T08:10:22.356Z,6.83
2018-05-24T08:12:51.848Z,7.20
2018-05-24T08:15:21.566Z,5.53
2018-05-24T08:17:50.042Z,6.17
2018-05-24T08:23:18.654Z,6.80
2018-05-24T08:25:48.373Z,7.03
2018-05-24T08:28:25.764Z,6.63
2018-05-24T08:31:02.702Z,6.67
2018-05-24T08:33:32.243Z,6.20
2018-05-24T08:36:01.754Z,6.77
2018-05-24T08:38:48.974Z,6.27
2018-05-24T08:41:19.560Z,5.90
2018-05-24T08:43:51.641Z,6.73
2018-05-24T08:46:20.102Z,7.83
2018-05-24T08:48:48.596Z,6.80
2018-05-24T08:51:17.070Z,7.00
2018-05-24T08:57:10.171Z,6.87
2018-05-24T08:59:38.647Z,9.00
2018-05-24T09:02:07.127Z,7.70
2018-05-24T09:04:35.599Z,8.37
2018-05-24T09:07:04.033Z,8.70
2018-05-24T09:12:36.009Z,7.97
2018-05-24T09:15:04.148Z,7.80
2018-05-24T09:17:32.641Z,8.40
2018-05-24T09:20:11.181Z,9.87
2018-05-24T09:22:39.755Z,8.60
2018-05-24T09:25:10.395Z,8.87
2018-05-24T09:27:39.054Z,7.90
2018-05-24T09:30:07.489Z,7.90
2018-05-24T09:32:37.623Z,9.40
2018-05-24T09:35:06.343Z,8.97
2018-05-24T09:46:05.751Z,9.10
2018-05-24T09:48:57.267Z,12.00
2018-05-24T09:51:25.782Z,9.80
2018-05-24T09:54:10.236Z,9.37
2018-05-24T09:56:38.727Z,10.63
2018-05-24T10:02:20.004Z,10.70
2018-05-24T10:10:56.031Z,10.47
2018-05-24T10:16:27.800Z,12.10
2018-05-24T10:24:53.217Z,9.60
2018-05-24T10:27:23.106Z,11.17
2018-05-24T10:29:52.611Z,11.50
2018-05-24T10:32:21.191Z,10.07
2018-05-24T10:34:49.730Z,12.27
2018-05-24T10:40:20.953Z,10.60
2018-05-24T10:43:11.403Z,10.73
2018-05-24T10:45:39.902Z,11.63
2018-05-24T10:48:08.399Z,11.50
2018-05-24T10:50:43.479Z,10.33
2018-05-24T10:53:12.187Z,10.57
2018-05-24T10:55:40.738Z,10.10
2018-05-24T10:58:09.235Z,11.00
2018-05-24T11:00:37.739Z,12.17
2018-05-24T11:03:06.254Z,10.83
2018-05-24T11:05:41.173Z,11.17
2018-05-24T11:08:10.733Z,9.70
2018-05-24T11:10:40.480Z,9.77
2018-05-24T11:16:12.034Z,8.37
2018-05-24T11:18:40.598Z,8.73
2018-05-24T11:21:21.095Z,7.70
2018-05-24T11:24:09.728Z,9.20
2018-05-24T11:26:38.274Z,10.63
2018-05-24T11:29:23.034Z,8.90
2018-05-24T11:34:54.547Z,10.63
2018-05-24T11:37:23.077Z,9.80
2018-05-24T11:39:52.851Z,11.60
2018-05-24T11:42:21.304Z,10.23
2018-05-24T11:44:49.769Z,10.70
2018-05-24T11:50:21.315Z,10.70
2018-05-24T11:52:53.072Z,11.40
2018-05-24T11:55:21.835Z,10.47
2018-05-24T11:57:50.358Z,11.77
2018-05-24T12:00:18.873Z,9.43
2018-05-24T12:02:47.440Z,12.90
2018-05-24T12:05:16.034Z,11.40
2018-05-24T12:10:37.024Z,12.30
2018-05-24T12:13:05.609Z,11.40
2018-05-24T12:15:36.209Z,10.90
2018-05-24T12:18:04.638Z,9.87
2018-05-24T12:20:33.191Z,11.50
2018-05-24T12:23:01.924Z,11.83
2018-05-24T12:25:30.362Z,10.77
2018-05-24T12:27:58.867Z,11.50
2018-05-24T12:30:27.405Z,10.40
2018-05-24T12:32:56.367Z,11.03
2018-05-24T12:35:24.944Z,11.87
2018-05-24T12:37:53.710Z,10.90
2018-05-24T12:40:22.195Z,10.80
2018-05-24T12:42:50.700Z,10.40
2018-05-24T12:45:19.223Z,10.60
2018-05-24T12:47:47.675Z,9.87
2018-05-24T12:50:16.154Z,9.40
2018-05-24T12:52:45.437Z,10.10
2018-05-24T12:55:13.935Z,10.77
2018-05-24T12:57:42.356Z,11.80
2018-05-24T13:00:10.982Z,10.77
2018-05-24T13:02:39.489Z,9.90
2018-05-24T13:05:07.977Z,12.17
2018-05-24T13:07:36.691Z,10.67
2018-05-24T13:10:05.334Z,12.07
2018-05-24T13:12:34.430Z,10.83
2018-05-24T13:15:03.024Z,13.20
2018-05-24T13:32:29.060Z,11.73
2018-05-24T13:35:21.838Z,13.23
2018-05-24T13:41:12.988Z,11.77
2018-05-24T13:43:41.480Z,12.00
2018-05-24T13:52:29.882Z,17.50
2018-05-24T13:55:04.661Z,13.17
2018-05-24T14:03:38.091Z,11.93
2018-05-24T14:06:06.600Z,14.63
2018-05-24T14:08:35.079Z,12.37
2018-05-24T14:17:10.108Z,12.50
2018-05-24T14:19:38.611Z,13.33
2018-05-24T14:22:26.987Z,12.20
2018-05-24T14:31:01.335Z,13.00
2018-05-24T14:33:29.941Z,12.40
2018-05-24T14:35:58.783Z,12.93
2018-05-24T14:38:29.338Z,12.47
2018-05-24T14:40:58.416Z,13.33
2018-05-24T14:43:26.849Z,10.00
2018-05-24T14:45:55.342Z,13.67
2018-05-24T14:48:23.916Z,13.53
2018-05-24T14:50:55.836Z,13.40
2018-05-24T14:53:24.290Z,13.20
2018-05-24T15:02:03.883Z,13.67
2018-05-24T15:04:54.504Z,11.60
2018-05-24T15:07:23.290Z,14.67
2018-05-24T15:09:52.012Z,13.23
2018-05-24T15:12:21.081Z,13.70
2018-05-24T15:14:50.340Z,12.80
2018-05-24T15:19:52.599Z,11.83
2018-05-24T15:22:22.434Z,13.20
2018-05-24T15:24:50.959Z,14.40
2018-05-24T15:30:17.898Z,12.83
2018-05-24T15:32:46.342Z,15.53
2018-05-24T15:35:14.803Z,14.17
2018-05-24T15:40:33.982Z,13.80
2018-05-24T15:43:02.412Z,13.97
2018-05-24T15:45:30.926Z,13.90
2018-05-24T15:47:59.407Z,13.77
2018-05-24T15:50:27.835Z,14.97
2018-05-24T15:52:56.370Z,14.63
2018-05-24T15:55:24.818Z,14.37
2018-05-24T15:57:53.324Z,15.30
2018-05-24T16:00:21.683Z,15.73
2018-05-24T16:02:52.074Z,16.43
2018-05-24T16:05:20.632Z,14.83
2018-05-24T16:10:22.790Z,15.00
2018-05-24T16:12:52.055Z,15.40
2018-05-24T16:15:20.500Z,17.27
2018-05-24T16:20:55.161Z,16.10
2018-05-24T16:23:40.677Z,16.93
2018-05-24T16:26:09.382Z,17.67
2018-05-24T16:28:37.917Z,15.47
2018-05-24T16:34:21.371Z,17.87
2018-05-24T16:39:27.591Z,17.03
2018-05-24T16:42:11.984Z,17.90
2018-05-24T16:44:40.493Z,15.10
2018-05-24T16:47:09.203Z,16.87
2018-05-24T16:49:37.699Z,17.33
2018-05-24T16:52:05.922Z,16.50
2018-05-24T16:54:53.050Z,16.47
2018-05-24T16:57:22.752Z,15.50
2018-05-24T16:59:51.323Z,17.53
2018-05-24T17:02:20.179Z,16.43
2018-05-24T17:07:27.399Z,16.90
2018-05-24T17:09:56.070Z,16.93
2018-05-24T17:12:24.581Z,15.97
2018-05-24T17:14:53.042Z,17.50
2018-05-24T17:17:21.581Z,16.13
2018-05-24T17:19:50.065Z,17.20
2018-05-24T17:22:18.561Z,17.07
2018-05-24T17:24:47.313Z,16.90
2018-05-24T17:27:15.874Z,15.30
2018-05-24T17:29:44.413Z,15.97
2018-05-24T17:32:12.914Z,18.03
2018-05-24T17:34:41.386Z,16.50
2018-05-24T17:37:09.908Z,16.10
2018-05-24T17:39:38.799Z,16.93
2018-05-24T17:42:08.337Z,16.90
2018-05-24T17:44:36.858Z,16.40
2018-05-24T17:47:05.385Z,16.47
2018-05-24T17:49:34.866Z,17.77
2018-05-24T17:52:07.216Z,14.73
2018-05-24T17:54:35.793Z,15.60
2018-05-24T17:57:04.320Z,14.20
2018-05-24T17:59:32.835Z,14.20
2018-05-24T18:02:21.101Z,14.60
2018-05-24T18:04:49.638Z,14.10
2018-05-24T18:07:17.787Z,15.10
2018-05-24T18:09:46.276Z,14.77
2018-05-24T18:12:14.817Z,13.77
2018-05-24T18:14:43.297Z,13.97
2018-05-24T18:17:22.275Z,14.67
2018-05-24T18:19:58.628Z,13.90
2018-05-24T18:22:27.370Z,15.27
2018-05-24T18:24:55.886Z,15.50
2018-05-24T18:27:24.384Z,16.27
2018-05-24T18:29:52.886Z,14.23
2018-05-24T18:32:21.407Z,13.90
2018-05-24T18:34:50.041Z,14.30
2018-05-24T18:37:18.567Z,14.17
2018-05-24T18:39:48.083Z,14.87
2018-05-24T18:42:17.398Z,14.30
2018-05-24T18:44:45.904Z,14.90
2018-05-24T18:47:21.215Z,12.83
2018-05-24T18:49:49.722Z,13.57
2018-05-24T18:52:18.202Z,15.33
2018-05-24T18:54:46.840Z,13.73
2018-05-24T18:57:15.321Z,15.00
2018-05-24T19:03:06.828Z,12.77
2018-05-24T19:05:35.395Z,14.47
2018-05-24T19:08:06.841Z,13.00
2018-05-24T19:10:35.406Z,14.23
2018-05-24T19:13:03.986Z,14.60
2018-05-24T19:21:22.348Z,13.23
2018-05-24T19:23:51.156Z,14.07
2018-05-24T19:26:20.981Z,15.40
2018-05-24T19:28:50.204Z,15.90
2018-05-24T19:31:21.766Z,15.73
2018-05-24T19:33:50.896Z,15.67
2018-05-24T19:44:27.742Z,15.20
2018-05-24T19:47:25.094Z,14.10
2018-05-24T19:49:53.924Z,15.07
2018-05-24T19:52:22.716Z,15.03
2018-05-24T19:57:25.745Z,15.80
2018-05-24T20:11:18.737Z,15.17
2018-05-24T20:13:59.311Z,15.00
2018-05-24T20:16:27.832Z,15.10
2018-05-24T20:21:52.540Z,15.13
2018-05-24T20:27:27.437Z,15.50
2018-05-24T20:32:43.522Z,14.10
2018-05-24T20:35:13.887Z,15.23
2018-05-24T20:37:42.439Z,14.80
2018-05-24T20:40:11.071Z,13.20
2018-05-24T20:42:40.990Z,13.00
2018-05-24T20:45:09.744Z,12.43
2018-05-24T20:47:38.237Z,11.07
2018-05-24T20:50:06.627Z,9.70
2018-05-24T20:52:35.193Z,9.70
2018-05-24T20:55:03.726Z,10.33
2018-05-24T20:57:32.243Z,9.07
2018-05-24T21:00:00.994Z,10.70
2018-05-24T21:02:30.834Z,10.23
2018-05-24T21:05:00.559Z,9.60
2018-05-24T21:07:28.937Z,10.50
2018-05-24T21:09:57.457Z,10.50
2018-05-24T21:12:26.027Z,10.30
2018-05-24T21:14:54.792Z,10.70
2018-05-24T21:17:23.654Z,10.03
2018-05-24T21:19:52.169Z,10.63
2018-05-24T21:22:20.734Z,9.67
2018-05-24T21:24:49.414Z,9.10
2018-05-24T21:27:17.943Z,10.00
2018-05-24T21:29:46.462Z,9.60
2018-05-24T21:32:14.949Z,9.80
2018-05-24T21:34:43.509Z,10.13
2018-05-24T21:37:11.995Z,10.40
2018-05-24T21:39:40.562Z,10.07
2018-05-24T21:42:08.911Z,11.40
2018-05-24T21:44:37.239Z,13.57
2018-05-24T21:47:05.772Z,12.77
2018-05-24T21:49:34.320Z,13.43
2018-05-24T21:55:06.924Z,15.40
2018-05-24T21:57:36.455Z,11.90
2018-05-24T22:00:04.301Z,12.80
2018-05-24T22:02:32.821Z,13.20
2018-05-24T22:05:01.391Z,13.43
2018-05-24T22:07:30.009Z,13.23
2018-05-24T22:09:58.664Z,12.27
2018-05-24T22:12:27.189Z,11.90
2018-05-24T22:14:55.704Z,12.40
2018-05-24T22:17:24.207Z,12.00
2018-05-24T22:19:52.754Z,12.33
2018-05-24T22:22:21.287Z,12.53
2018-05-24T22:24:49.780Z,11.23
2018-05-24T22:27:18.311Z,10.87
2018-05-24T22:29:46.839Z,11.17
2018-05-24T22:32:15.342Z,10.77
2018-05-24T22:34:43.899Z,10.87
2018-05-24T22:37:12.388Z,12.43
2018-05-24T22:39:40.900Z,12.47
2018-05-24T22:42:09.420Z,12.50
2018-05-24T22:44:37.999Z,13.13
2018-05-24T22:47:06.554Z,11.93
2018-05-24T22:49:35.090Z,12.33
2018-05-24T22:52:03.597Z,12.23
2018-05-24T22:57:51.034Z,12.67
2018-05-24T23:00:19.564Z,12.70
2018-05-24T23:02:48.079Z,11.00
2018-05-24T23:05:16.624Z,12.70
2018-05-24T23:07:45.324Z,12.30
2018-05-24T23:10:13.869Z,12.83
2018-05-24T23:12:42.437Z,11.30
2018-05-24T23:15:10.932Z,13.50
2018-05-24T23:17:39.423Z,12.67
2018-05-24T23:20:07.942Z,14.87
2018-05-24T23:22:38.623Z,12.70
2018-05-24T23:25:07.196Z,13.80
2018-05-24T23:27:35.671Z,12.10
2018-05-24T23:30:03.481Z,13.07
2018-05-24T23:32:32.012Z,11.80
2018-05-24T23:35:00.493Z,11.80
2018-05-24T23:37:29.014Z,12.00
2018-05-24T23:39:57.653Z,12.23
2018-05-24T23:42:26.162Z,11.60
2018-05-24T23:44:54.679Z,12.37
2018-05-24T23:47:23.170Z,11.53
2018-05-24T23:49:52.335Z,11.30
2018-05-24T23:52:20.833Z,11.90
2018-05-24T23:54:49.412Z,11.50
2018-05-24T23:57:17.947Z,11.73
